createdAt,value
2023-02-04T00:02:07.339Z,9.60
2023-02-04T00:04:33.996Z,9.60
2023-02-04T00:07:00.611Z,9.60
2023-02-04T00:09:27.220Z,9.60
2023-02-04T00:11:53.840Z,9.70
2023-02-04T00:14:20.481Z,9.70
2023-02-04T00:16:47.125Z,9.60
2023-02-04T00:19:13.796Z,9.60
2023-02-04T00:21:40.479Z,9.60
2023-02-04T00:24:07.109Z,9.60
2023-02-04T00:26:33.740Z,9.60
2023-02-04T00:29:00.393Z,9.60
2023-02-04T00:31:27.193Z,9.60
2023-02-04T00:33:53.930Z,9.60
2023-02-04T00:36:20.642Z,9.60
2023-02-04T00:38:47.273Z,9.50
2023-02-04T00:41:13.955Z,9.50
2023-02-04T00:43:40.582Z,9.50
2023-02-04T00:46:07.917Z,9.50
2023-02-04T00:48:35.592Z,9.50
2023-02-04T00:51:02.647Z,9.50
2023-02-04T00:53:29.308Z,9.50
2023-02-04T00:55:56.003Z,9.50
2023-02-04T00:58:22.636Z,9.50
2023-02-04T01:00:49.336Z,9.50
2023-02-04T01:03:16.039Z,9.50
2023-02-04T01:05:42.668Z,9.50
2023-02-04T01:08:09.308Z,9.50
2023-02-04T01:10:35.960Z,9.50
2023-02-04T01:13:02.832Z,9.60
2023-02-04T01:15:29.636Z,9.70
2023-02-04T01:17:56.356Z,9.80
2023-02-04T01:20:22.959Z,9.70
2023-02-04T01:22:49.641Z,9.70
2023-02-04T01:25:16.401Z,9.70
2023-02-04T01:27:44.806Z,9.70
2023-02-04T01:30:13.730Z,9.60
2023-02-04T01:32:40.691Z,9.50
2023-02-04T01:35:07.666Z,9.50
2023-02-04T01:37:34.452Z,9.40
2023-02-04T01:40:01.071Z,9.40
2023-02-04T01:42:27.742Z,9.30
2023-02-04T01:44:54.411Z,9.30
2023-02-04T01:47:21.570Z,9.40
2023-02-04T01:49:52.912Z,9.40
2023-02-04T01:52:20.094Z,9.40
2023-02-04T01:54:47.048Z,9.40
2023-02-04T01:57:15.946Z,9.50
2023-02-04T01:59:47.609Z,9.50
2023-02-04T02:02:40.669Z,9.50
2023-02-04T02:05:14.687Z,9.50
2023-02-04T02:07:41.500Z,9.60
2023-02-04T02:10:10.927Z,9.60
2023-02-04T02:12:38.289Z,9.60
2023-02-04T02:15:05.845Z,9.50
2023-02-04T02:17:33.448Z,9.50
2023-02-04T02:20:00.313Z,9.60
2023-02-04T02:22:37.462Z,9.50
2023-02-04T02:25:10.030Z,9.60
2023-02-04T02:27:36.683Z,9.50
2023-02-04T02:30:04.627Z,9.50
2023-02-04T02:48:28.999Z,9.10
2023-02-04T02:50:55.762Z,9.00
2023-02-04T02:53:22.597Z,8.90
2023-02-04T02:55:49.622Z,8.90
2023-02-04T02:58:23.708Z,8.90
2023-02-04T03:00:50.553Z,9.00
2023-02-04T03:03:24.883Z,9.00
2023-02-04T03:05:55.537Z,8.90
2023-02-04T03:08:22.523Z,8.90
2023-02-04T03:10:49.297Z,8.90
2023-02-04T03:13:17.280Z,8.90
2023-02-04T03:15:46.638Z,8.80
2023-02-04T03:18:16.635Z,8.70
2023-02-04T03:20:44.065Z,8.70
2023-02-04T03:23:12.072Z,8.70
2023-02-04T03:25:39.355Z,8.70
2023-02-04T03:28:06.422Z,8.80
2023-02-04T03:30:33.538Z,8.80
2023-02-04T03:33:00.395Z,8.70
2023-02-04T03:35:27.345Z,8.70
2023-02-04T03:37:54.003Z,8.70
2023-02-04T03:40:20.741Z,8.60
2023-02-04T03:42:47.413Z,8.70
2023-02-04T03:45:14.103Z,8.60
2023-02-04T03:47:40.713Z,8.60
2023-02-04T03:50:07.468Z,8.60
2023-02-04T03:52:34.117Z,8.60
2023-02-04T03:55:00.734Z,8.70
2023-02-04T03:57:27.340Z,8.70
2023-02-04T03:59:53.941Z,8.70
2023-02-04T04:02:20.578Z,8.80
2023-02-04T04:04:47.281Z,8.80
2023-02-04T04:07:13.935Z,8.80
2023-02-04T04:09:40.547Z,8.80
2023-02-04T04:12:07.187Z,8.80
2023-02-04T04:14:33.840Z,8.80
2023-02-04T04:17:00.517Z,8.80
2023-02-04T04:19:27.248Z,8.80
2023-02-04T04:21:53.843Z,8.80
2023-02-04T04:24:20.465Z,8.80
2023-02-04T04:26:47.153Z,8.60
2023-02-04T04:29:13.802Z,8.60
2023-02-04T04:31:40.516Z,8.60
2023-02-04T04:34:07.275Z,8.60
2023-02-04T04:36:33.912Z,8.60
2023-02-04T04:39:00.544Z,8.60
2023-02-04T04:41:27.162Z,8.60
2023-02-04T04:43:53.818Z,8.60
2023-02-04T04:46:20.508Z,8.60
2023-02-04T04:48:47.177Z,8.60
2023-02-04T04:51:13.875Z,8.40
2023-02-04T04:53:40.956Z,8.40
2023-02-04T04:56:07.796Z,8.40
2023-02-04T04:58:34.440Z,8.40
2023-02-04T05:01:01.112Z,8.40
2023-02-04T05:03:27.764Z,8.30
2023-02-04T05:05:54.362Z,8.40
2023-02-04T05:08:21.060Z,8.30
2023-02-04T05:10:47.864Z,8.20
2023-02-04T05:13:14.674Z,8.20
2023-02-04T05:15:42.335Z,8.30
2023-02-04T05:18:09.064Z,8.30
2023-02-04T05:20:35.772Z,8.20
2023-02-04T05:23:05.367Z,8.20
2023-02-04T05:25:32.826Z,8.30
2023-02-04T05:27:59.480Z,8.20
2023-02-04T05:30:26.195Z,8.30
2023-02-04T05:32:52.972Z,8.30
2023-02-04T05:35:19.821Z,8.30
2023-02-04T05:37:46.495Z,8.20
2023-02-04T05:40:13.310Z,8.20
2023-02-04T05:42:41.707Z,8.20
2023-02-04T05:45:14.692Z,8.20
2023-02-04T05:47:41.402Z,8.20
2023-02-04T05:50:08.602Z,8.20
2023-02-04T05:52:35.192Z,8.20
2023-02-04T05:55:01.861Z,8.30
2023-02-04T05:57:28.567Z,8.20
2023-02-04T05:59:55.189Z,8.20
2023-02-04T06:02:21.845Z,8.20
2023-02-04T06:04:48.499Z,8.20
2023-02-04T06:07:15.086Z,8.20
2023-02-04T06:09:41.761Z,8.20
2023-02-04T06:12:08.619Z,8.20
2023-02-04T06:14:35.236Z,8.20
2023-02-04T06:17:01.817Z,8.10
2023-02-04T06:19:28.437Z,8.10
2023-02-04T06:21:55.116Z,8.20
2023-02-04T06:24:21.730Z,8.20
2023-02-04T06:26:48.346Z,8.20
2023-02-04T06:29:14.997Z,8.20
2023-02-04T06:31:41.772Z,8.20
2023-02-04T06:34:08.435Z,8.20
2023-02-04T06:36:35.121Z,8.20
2023-02-04T06:39:01.812Z,8.20
2023-02-04T06:41:28.407Z,8.20
2023-02-04T06:43:55.042Z,8.20
2023-02-04T06:46:21.797Z,8.20
2023-02-04T06:48:48.590Z,8.10
2023-02-04T06:51:15.617Z,8.10
2023-02-04T06:53:44.114Z,8.00
2023-02-04T06:56:11.286Z,8.00
2023-02-04T06:58:38.249Z,8.00
2023-02-04T07:01:06.320Z,8.00
2023-02-04T07:03:33.026Z,8.00
2023-02-04T07:05:59.667Z,8.00
2023-02-04T07:08:26.333Z,8.00
2023-02-04T07:10:52.986Z,8.10
2023-02-04T07:13:19.570Z,8.10
2023-02-04T07:15:46.255Z,8.10
2023-02-04T07:18:12.984Z,8.10
2023-02-04T07:20:39.694Z,8.10
2023-02-04T07:23:06.336Z,8.10
2023-02-04T07:25:32.970Z,8.10
2023-02-04T07:28:01.646Z,8.10
2023-02-04T07:30:28.353Z,8.20
2023-02-04T07:32:55.030Z,8.20
2023-02-04T07:35:21.703Z,8.30
2023-02-04T07:37:48.395Z,8.30
2023-02-04T07:40:15.217Z,8.40
2023-02-04T07:42:41.844Z,8.50
2023-02-04T07:45:09.251Z,8.60
2023-02-04T07:47:35.958Z,8.60
2023-02-04T07:50:02.590Z,8.70
2023-02-04T07:52:32.260Z,8.80
2023-02-04T07:54:59.599Z,8.80
2023-02-04T07:57:26.210Z,8.80
2023-02-04T07:59:52.796Z,8.90
2023-02-04T08:02:19.379Z,9.00
2023-02-04T08:04:45.948Z,9.10
2023-02-04T08:07:12.553Z,9.20
2023-02-04T08:09:39.120Z,9.40
2023-02-04T08:12:05.898Z,9.50
2023-02-04T08:14:32.538Z,9.70
2023-02-04T08:16:59.226Z,9.70
2023-02-04T08:19:25.904Z,9.80
2023-02-04T08:21:52.573Z,9.90
2023-02-04T08:24:19.173Z,10.30
2023-02-04T08:26:45.856Z,10.50
2023-02-04T08:29:12.447Z,10.40
2023-02-04T08:31:39.101Z,10.40
2023-02-04T08:34:06.376Z,10.50
2023-02-04T08:36:33.404Z,10.40
2023-02-04T08:39:00.305Z,10.30
2023-02-04T08:41:26.956Z,10.50
2023-02-04T08:43:53.601Z,10.80
2023-02-04T08:46:20.302Z,11.00
2023-02-04T08:48:46.946Z,11.30
2023-02-04T08:51:13.608Z,11.70
2023-02-04T08:53:40.687Z,12.20
2023-02-04T08:56:08.933Z,12.80
2023-02-04T08:58:35.823Z,13.30
2023-02-04T09:01:03.010Z,14.00
2023-02-04T09:03:29.783Z,14.60
2023-02-04T09:05:56.459Z,14.80
2023-02-04T09:08:23.117Z,14.60
2023-02-04T09:10:49.776Z,14.30
2023-02-04T09:13:16.450Z,14.10
2023-02-04T09:15:43.107Z,13.90
2023-02-04T09:18:21.926Z,13.70
2023-02-04T09:20:49.816Z,13.70
2023-02-04T09:23:17.185Z,13.60
2023-02-04T09:25:45.365Z,13.40
2023-02-04T09:28:14.022Z,13.30
2023-02-04T09:30:42.074Z,13.20
2023-02-04T09:33:10.459Z,13.20
2023-02-04T09:35:37.679Z,13.10
2023-02-04T09:38:04.888Z,13.10
2023-02-04T09:40:35.038Z,13.00
2023-02-04T09:43:04.033Z,13.10
2023-02-04T09:45:34.423Z,13.30
2023-02-04T09:48:04.045Z,13.70
2023-02-04T09:50:32.412Z,14.10
2023-02-04T09:53:02.976Z,14.30
2023-02-04T09:55:38.969Z,14.40
2023-02-04T09:58:17.552Z,15.40
2023-02-04T10:00:52.040Z,17.10
2023-02-04T10:03:22.040Z,18.00
2023-02-04T10:05:50.357Z,18.60
2023-02-04T10:08:26.159Z,18.10
2023-02-04T10:10:52.857Z,17.50
2023-02-04T10:13:22.738Z,15.80
2023-02-04T10:15:50.710Z,15.10
2023-02-04T10:18:26.196Z,14.50
2023-02-04T10:21:01.140Z,14.30
2023-02-04T10:23:27.898Z,14.00
2023-02-04T10:25:54.498Z,14.00
2023-02-04T10:28:21.175Z,13.90
2023-02-04T10:30:47.910Z,13.70
2023-02-04T10:33:27.170Z,13.60
2023-02-04T10:35:56.518Z,13.30
2023-02-04T10:38:24.027Z,13.20
2023-02-04T10:41:05.547Z,13.00
2023-02-04T10:43:32.490Z,13.10
2023-02-04T10:46:03.957Z,13.10
2023-02-04T10:48:39.481Z,13.10
2023-02-04T10:51:06.124Z,13.20
2023-02-04T10:53:51.600Z,13.20
2023-02-04T10:56:21.514Z,13.20
2023-02-04T10:58:49.176Z,13.10
2023-02-04T11:01:16.912Z,13.20
2023-02-04T11:03:45.911Z,13.30
2023-02-04T11:06:20.480Z,13.50
2023-02-04T11:08:48.303Z,13.60
2023-02-04T11:11:25.592Z,13.20
2023-02-04T11:13:52.154Z,13.30
2023-02-04T11:16:18.845Z,13.30
2023-02-04T11:18:49.604Z,13.30
2023-02-04T11:21:23.118Z,13.20
2023-02-04T11:23:50.409Z,13.20
2023-02-04T11:26:31.527Z,13.10
2023-02-04T11:29:00.931Z,13.10
2023-02-04T11:31:29.408Z,13.00
2023-02-04T11:34:21.503Z,12.90
2023-02-04T11:37:04.783Z,12.80
2023-02-04T11:39:42.256Z,12.80
2023-02-04T11:42:21.165Z,12.80
2023-02-04T11:44:58.351Z,12.40
2023-02-04T11:47:26.219Z,12.10
2023-02-04T11:49:59.490Z,11.90
2023-02-04T11:52:26.117Z,11.90
2023-02-04T11:54:58.391Z,11.70
2023-02-04T11:57:25.598Z,11.40
2023-02-04T11:59:52.836Z,11.00
2023-02-04T12:02:22.517Z,10.80
2023-02-04T12:04:54.916Z,10.70
2023-02-04T12:07:26.839Z,10.60
2023-02-04T12:09:54.313Z,10.50
2023-02-04T12:12:30.082Z,10.50
2023-02-04T12:14:58.961Z,10.70
2023-02-04T12:17:25.704Z,11.30
2023-02-04T12:19:52.381Z,11.80
2023-02-04T12:22:19.536Z,12.50
2023-02-04T12:24:46.149Z,13.00
2023-02-04T12:27:12.766Z,13.50
2023-02-04T12:29:40.398Z,14.80
2023-02-04T12:32:07.050Z,16.10
2023-02-04T12:34:33.761Z,18.20
2023-02-04T12:37:00.375Z,18.60
2023-02-04T12:39:28.502Z,17.80
2023-02-04T12:41:55.179Z,16.60
2023-02-04T12:44:21.820Z,15.70
2023-02-04T12:46:48.482Z,15.10
2023-02-04T12:49:15.206Z,14.80
2023-02-04T12:51:41.820Z,14.20
2023-02-04T12:54:08.430Z,13.50
2023-02-04T12:56:35.057Z,13.40
2023-02-04T12:59:01.670Z,13.30
2023-02-04T13:01:28.335Z,13.30
2023-02-04T13:03:54.950Z,13.40
2023-02-04T13:06:21.564Z,13.50
2023-02-04T13:08:48.182Z,13.70
2023-02-04T13:11:14.785Z,14.60
2023-02-04T13:13:41.392Z,16.10
2023-02-04T13:16:08.033Z,17.70
2023-02-04T13:18:34.723Z,19.40
2023-02-04T13:21:01.786Z,21.40
2023-02-04T13:23:28.433Z,23.30
2023-02-04T13:25:55.086Z,24.60
2023-02-04T13:28:21.786Z,25.60
2023-02-04T13:30:48.391Z,26.50
2023-02-04T13:33:15.140Z,27.00
2023-02-04T13:35:41.770Z,25.90
2023-02-04T13:38:08.421Z,23.20
2023-02-04T13:40:35.027Z,21.20
2023-02-04T13:43:01.665Z,20.30
2023-02-04T13:45:28.488Z,20.40
2023-02-04T13:47:55.122Z,21.20
2023-02-04T13:50:21.786Z,21.20
2023-02-04T13:52:48.382Z,21.80
2023-02-04T13:55:15.126Z,22.40
2023-02-04T13:57:41.751Z,22.20
2023-02-04T14:00:09.665Z,21.90
2023-02-04T14:02:36.309Z,20.60
2023-02-04T14:05:03.001Z,19.50
2023-02-04T14:07:30.432Z,17.90
2023-02-04T14:09:57.056Z,17.20
2023-02-04T14:12:23.695Z,16.60
2023-02-04T14:14:50.371Z,16.00
2023-02-04T14:17:17.029Z,15.60
2023-02-04T14:19:43.704Z,15.10
2023-02-04T14:22:12.924Z,14.80
2023-02-04T14:24:42.410Z,14.40
2023-02-04T14:27:09.527Z,14.10
2023-02-04T14:29:36.235Z,13.90
2023-02-04T14:32:03.177Z,13.90
2023-02-04T14:34:29.852Z,14.20
2023-02-04T14:36:56.499Z,14.20
2023-02-04T14:39:23.150Z,14.00
2023-02-04T14:41:49.768Z,13.90
2023-02-04T14:44:20.828Z,13.80
2023-02-04T14:46:48.913Z,13.70
2023-02-04T14:49:16.526Z,13.40
2023-02-04T14:51:43.574Z,12.80
2023-02-04T14:54:10.285Z,12.20
2023-02-04T14:56:36.970Z,12.00
2023-02-04T14:59:03.621Z,11.90
2023-02-04T15:01:31.025Z,11.70
2023-02-04T15:03:58.258Z,11.60
2023-02-04T15:06:24.901Z,11.50
2023-02-04T15:08:52.296Z,11.40
2023-02-04T15:11:18.966Z,11.30
2023-02-04T15:13:45.659Z,11.30
2023-02-04T15:16:14.272Z,11.10
2023-02-04T15:18:41.428Z,11.10
2023-02-04T15:21:08.293Z,10.80
2023-02-04T15:23:34.951Z,10.70
2023-02-04T15:26:01.603Z,10.60
2023-02-04T15:28:29.720Z,10.60
2023-02-04T15:30:56.661Z,10.50
2023-02-04T15:33:23.454Z,10.50
2023-02-04T15:35:50.080Z,10.40
2023-02-04T15:38:16.682Z,10.30
2023-02-04T15:40:43.326Z,10.30
2023-02-04T15:43:09.975Z,10.30
2023-02-04T15:45:41.189Z,10.20
2023-02-04T15:48:08.480Z,10.30
2023-02-04T15:50:35.299Z,10.20
2023-02-04T15:53:01.938Z,10.20
2023-02-04T15:55:29.053Z,10.20
2023-02-04T15:57:55.830Z,10.10
2023-02-04T16:00:23.032Z,9.90
2023-02-04T16:02:49.788Z,9.90
2023-02-04T16:05:16.802Z,9.80
2023-02-04T16:07:43.430Z,9.70
2023-02-04T16:10:10.647Z,9.60
2023-02-04T16:12:37.314Z,9.60
2023-02-04T16:15:04.146Z,9.50
2023-02-04T16:17:30.744Z,9.30
2023-02-04T16:19:58.057Z,9.30
2023-02-04T16:22:24.804Z,9.20
2023-02-04T16:24:52.829Z,9.10
2023-02-04T16:27:19.889Z,9.10
2023-02-04T16:29:46.809Z,9.00
2023-02-04T16:32:14.055Z,9.00
2023-02-04T16:34:40.699Z,8.90
2023-02-04T16:37:07.340Z,8.90
2023-02-04T16:39:33.951Z,9.30
2023-02-04T16:42:00.591Z,8.80
2023-02-04T16:44:27.219Z,8.70
2023-02-04T16:46:54.951Z,8.60
2023-02-04T16:49:21.713Z,8.50
2023-02-04T16:51:48.355Z,8.50
2023-02-04T16:54:14.969Z,8.30
2023-02-04T16:56:41.569Z,8.20
2023-02-04T16:59:08.202Z,8.20
2023-02-04T17:01:35.084Z,8.00
2023-02-04T17:04:01.737Z,7.90
2023-02-04T17:06:30.083Z,7.80
2023-02-04T17:08:56.761Z,7.80
2023-02-04T17:11:29.637Z,7.70
2023-02-04T17:14:08.536Z,7.60
2023-02-04T17:16:35.765Z,7.50
2023-02-04T17:19:02.906Z,7.40
2023-02-04T17:21:30.251Z,7.40
2023-02-04T17:24:02.683Z,7.30
2023-02-04T17:26:36.842Z,7.30
2023-02-04T17:29:08.048Z,7.20
2023-02-04T17:31:35.122Z,7.10
2023-02-04T17:34:03.219Z,7.00
2023-02-04T17:36:31.170Z,7.00
2023-02-04T17:38:58.041Z,6.90
2023-02-04T17:41:24.770Z,6.90
2023-02-04T17:43:51.402Z,6.80
2023-02-04T17:46:18.167Z,6.70
2023-02-04T17:48:44.941Z,6.60
2023-02-04T17:51:11.584Z,6.60
2023-02-04T17:53:40.370Z,6.60
2023-02-04T17:56:11.882Z,6.50
2023-02-04T17:58:38.997Z,6.50
2023-02-04T18:01:11.480Z,6.50
2023-02-04T18:03:38.812Z,6.50
2023-02-04T18:06:17.582Z,6.40
2023-02-04T18:08:44.189Z,6.40
2023-02-04T18:11:22.734Z,6.40
2023-02-04T18:13:49.788Z,6.40
2023-02-04T18:16:24.117Z,6.40
2023-02-04T18:18:54.194Z,6.40
2023-02-04T18:21:24.808Z,6.40
2023-02-04T18:24:03.215Z,6.40
2023-02-04T18:26:29.887Z,6.40
2023-02-04T18:28:56.536Z,6.40
2023-02-04T18:31:23.165Z,6.40
2023-02-04T18:33:50.364Z,6.30
2023-02-04T18:36:20.409Z,6.30
2023-02-04T18:38:47.031Z,6.30
2023-02-04T18:41:27.576Z,6.30
2023-02-04T18:44:15.487Z,6.30
2023-02-04T18:46:46.586Z,6.30
2023-02-04T18:51:43.531Z,6.30
2023-02-04T18:54:27.010Z,6.30
2023-02-04T18:56:56.346Z,6.40
2023-02-04T18:59:25.660Z,6.40
2023-02-04T19:01:52.342Z,6.40
2023-02-04T19:04:25.322Z,6.30
2023-02-04T19:06:54.577Z,6.30
2023-02-04T19:09:30.824Z,6.30
2023-02-04T19:12:00.444Z,6.30
2023-02-04T19:14:37.452Z,6.30
2023-02-04T19:17:29.896Z,6.30
2023-02-04T19:20:22.836Z,6.30
2023-02-04T19:22:56.935Z,6.30
2023-02-04T19:25:35.862Z,6.20
2023-02-04T19:28:28.101Z,6.30
2023-02-04T19:31:08.034Z,6.30
2023-02-04T19:33:42.367Z,6.20
2023-02-04T19:36:37.107Z,6.20
2023-02-04T19:39:30.562Z,6.20
2023-02-04T19:41:58.107Z,6.20
2023-02-04T19:44:31.416Z,6.30
2023-02-04T19:47:29.603Z,6.20
2023-02-04T19:50:22.718Z,6.20
2023-02-04T19:52:52.381Z,6.10
2023-02-04T19:55:21.749Z,6.10
2023-02-04T19:57:51.396Z,6.10
2023-02-04T20:00:36.756Z,6.10
2023-02-04T20:03:36.960Z,6.00
2023-02-04T20:06:09.747Z,6.00
2023-02-04T20:08:54.119Z,5.90
2023-02-04T20:11:35.695Z,5.80
2023-02-04T20:14:14.477Z,5.70
2023-02-04T20:16:49.351Z,5.60
2023-02-04T20:19:23.448Z,5.60
2023-02-04T20:22:18.731Z,5.50
2023-02-04T20:24:54.862Z,5.40
2023-02-04T20:27:35.074Z,5.30
2023-02-04T20:30:25.503Z,5.30
2023-02-04T20:32:55.092Z,5.30
2023-02-04T20:35:22.159Z,5.30
2023-02-04T20:37:53.002Z,5.30
2023-02-04T20:40:22.793Z,5.40
2023-02-04T20:42:52.776Z,5.40
2023-02-04T20:45:40.913Z,5.40
2023-02-04T20:48:32.338Z,5.40
2023-02-04T20:51:02.856Z,5.40
2023-02-04T20:53:39.336Z,5.40
2023-02-04T20:56:14.705Z,5.30
2023-02-04T20:58:46.170Z,5.30
2023-02-04T21:01:35.989Z,5.30
2023-02-04T21:04:28.328Z,5.30
2023-02-04T21:06:59.323Z,5.20
2023-02-04T21:09:28.901Z,5.20
2023-02-04T21:11:56.830Z,5.10
2023-02-04T21:14:24.653Z,5.10
2023-02-04T21:16:52.616Z,5.10
2023-02-04T21:19:20.962Z,5.10
2023-02-04T21:21:48.049Z,5.00
2023-02-04T21:24:15.195Z,5.00
2023-02-04T21:26:42.166Z,5.00
2023-02-04T21:29:10.347Z,4.90
2023-02-04T21:31:37.254Z,4.90
2023-02-04T21:34:04.680Z,4.90
2023-02-04T21:36:32.646Z,4.80
2023-02-04T21:38:59.325Z,4.70
2023-02-04T21:41:26.159Z,4.70
2023-02-04T21:43:52.802Z,4.60
2023-02-04T21:46:20.104Z,4.60
2023-02-04T21:48:46.948Z,4.50
2023-02-04T21:51:14.738Z,4.50
2023-02-04T21:53:42.172Z,4.40
2023-02-04T21:56:09.460Z,4.30
2023-02-04T21:58:36.562Z,4.30
2023-02-04T22:01:03.242Z,4.20
2023-02-04T22:03:29.985Z,4.20
2023-02-04T22:05:56.676Z,4.20
2023-02-04T22:08:23.340Z,4.10
2023-02-04T22:10:49.992Z,4.10
2023-02-04T22:13:35.146Z,4.10
2023-02-04T22:16:01.817Z,4.10
2023-02-04T22:18:28.421Z,4.00
2023-02-04T22:20:55.158Z,4.00
2023-02-04T22:23:21.773Z,4.00
2023-02-04T22:25:48.400Z,3.90
2023-02-04T22:28:15.038Z,3.90
2023-02-04T22:30:41.759Z,3.90
2023-02-04T22:33:08.423Z,3.80
2023-02-04T22:35:36.730Z,3.80
2023-02-04T22:38:03.634Z,3.80
2023-02-04T22:40:30.276Z,3.70
2023-02-04T22:42:56.883Z,3.70
2023-02-04T22:45:23.520Z,3.70
2023-02-04T22:47:50.486Z,3.70
2023-02-04T22:50:17.275Z,3.70
2023-02-04T22:52:44.061Z,3.70
2023-02-04T22:55:10.756Z,3.70
2023-02-04T22:57:37.382Z,3.70
2023-02-04T23:00:08.956Z,3.70
2023-02-04T23:02:35.701Z,3.80
2023-02-04T23:05:02.837Z,3.80
2023-02-04T23:07:29.468Z,3.90
2023-02-04T23:09:56.123Z,3.90
2023-02-04T23:12:22.944Z,4.00
2023-02-04T23:14:50.059Z,4.00
2023-02-04T23:17:17.901Z,4.00
2023-02-04T23:19:44.966Z,4.00
2023-02-04T23:22:12.947Z,4.10
2023-02-04T23:24:40.770Z,4.10
2023-02-04T23:27:09.222Z,4.10
2023-02-04T23:29:35.885Z,4.20
2023-02-04T23:32:03.053Z,4.20
2023-02-04T23:34:30.554Z,4.20
2023-02-04T23:36:57.663Z,4.30
2023-02-04T23:39:24.396Z,4.30
2023-02-04T23:41:51.266Z,4.30
2023-02-04T23:44:18.339Z,4.30
2023-02-04T23:46:45.028Z,4.20
2023-02-04T23:49:11.842Z,4.20
2023-02-04T23:51:38.649Z,4.20
2023-02-04T23:54:07.040Z,4.20
2023-02-04T23:56:34.119Z,4.20
2023-02-04T23:59:01.336Z,4.20
